createdAt,value
2023-04-23T00:02:47.352Z,7.26
2023-04-23T00:07:56.200Z,7.51
2023-04-23T00:13:04.675Z,7.71
2023-04-23T00:18:12.168Z,7.83
2023-04-23T00:23:19.520Z,7.91
2023-04-23T00:28:27.446Z,7.96
2023-04-23T00:33:35.233Z,7.99
2023-04-23T00:38:42.751Z,8.01
2023-04-23T00:43:53.363Z,8.03
2023-04-23T00:49:01.884Z,8.04
2023-04-23T00:54:10.384Z,8.06
2023-04-23T00:59:18.417Z,8.06
2023-04-23T01:04:30.004Z,8.06
2023-04-23T01:09:37.509Z,8.05
2023-04-23T01:14:45.707Z,8.03
2023-04-23T01:19:53.344Z,8.01
2023-04-23T01:25:01.471Z,7.99
2023-04-23T01:30:11.364Z,7.98
2023-04-23T01:35:19.062Z,7.95
2023-04-23T01:40:26.758Z,7.94
2023-04-23T01:45:35.441Z,7.91
2023-04-23T01:50:44.500Z,7.88
2023-04-23T01:55:53.456Z,7.85
2023-04-23T02:01:01.050Z,7.83
2023-04-23T02:06:09.372Z,7.80
2023-04-23T02:11:16.855Z,7.76
2023-04-23T02:16:25.156Z,7.73
2023-04-23T02:21:33.130Z,7.67
2023-04-23T02:26:40.952Z,7.63
2023-04-23T02:31:48.408Z,7.58
2023-04-23T02:36:56.491Z,7.54
2023-04-23T02:42:04.014Z,7.49
2023-04-23T02:47:11.830Z,7.45
2023-04-23T02:52:19.799Z,7.41
2023-04-23T02:57:27.645Z,7.36
2023-04-23T03:02:35.423Z,7.30
2023-04-23T03:07:43.924Z,7.24
2023-04-23T03:12:51.799Z,7.19
2023-04-23T03:17:59.881Z,7.14
2023-04-23T03:23:08.038Z,7.09
2023-04-23T03:28:16.422Z,7.03
2023-04-23T03:33:25.018Z,6.98
2023-04-23T03:38:32.849Z,6.94
2023-04-23T03:43:41.169Z,6.89
2023-04-23T03:49:12.134Z,6.85
2023-04-23T03:54:20.114Z,6.81
2023-04-23T03:59:43.462Z,6.80
2023-04-23T04:04:52.308Z,6.80
2023-04-23T04:10:00.216Z,6.83
2023-04-23T04:15:09.170Z,6.90
2023-04-23T04:20:17.272Z,6.98
2023-04-23T04:25:25.083Z,7.07
2023-04-23T04:30:32.405Z,7.19
2023-04-23T04:35:39.836Z,7.32
2023-04-23T04:40:49.345Z,7.50
2023-04-23T04:45:59.790Z,7.70
2023-04-23T04:51:08.495Z,7.96
2023-04-23T04:56:15.979Z,8.29
2023-04-23T05:01:25.062Z,8.64
2023-04-23T05:06:33.448Z,9.06
2023-04-23T05:11:41.867Z,9.51
2023-04-23T05:16:50.054Z,9.96
2023-04-23T05:21:59.113Z,10.37
2023-04-23T05:27:07.036Z,10.78
2023-04-23T05:32:15.257Z,11.19
2023-04-23T05:37:23.074Z,11.60
2023-04-23T05:42:30.876Z,12.01
2023-04-23T05:47:38.466Z,12.43
2023-04-23T05:52:46.456Z,12.85
2023-04-23T05:57:54.031Z,13.28
2023-04-23T06:03:01.659Z,13.72
2023-04-23T06:08:09.976Z,14.17
2023-04-23T06:13:18.408Z,14.58
2023-04-23T06:18:28.013Z,14.97
2023-04-23T06:23:37.357Z,15.35
2023-04-23T06:28:45.538Z,15.74
2023-04-23T06:34:05.844Z,16.13
2023-04-23T06:39:13.597Z,16.42
2023-04-23T06:44:21.393Z,16.59
2023-04-23T06:49:37.895Z,16.90
2023-04-23T06:54:45.890Z,17.25
2023-04-23T06:59:53.357Z,17.63
2023-04-23T07:05:02.215Z,17.99
2023-04-23T07:10:13.569Z,18.35
2023-04-23T07:15:22.901Z,18.71
2023-04-23T07:20:30.740Z,19.04
2023-04-23T07:25:39.891Z,19.27
2023-04-23T07:30:47.144Z,19.45
2023-04-23T07:35:54.524Z,19.61
2023-04-23T07:41:01.870Z,19.75
2023-04-23T07:46:10.184Z,19.86
2023-04-23T07:51:17.893Z,19.95
2023-04-23T07:56:26.462Z,20.05
2023-04-23T08:01:34.155Z,20.15
2023-04-23T08:06:42.212Z,20.27
2023-04-23T08:11:49.850Z,20.38
2023-04-23T08:16:57.250Z,20.52
2023-04-23T08:22:04.884Z,20.67
2023-04-23T08:27:12.438Z,20.81
2023-04-23T08:32:19.755Z,20.88
2023-04-23T08:37:31.326Z,20.94
2023-04-23T08:42:44.544Z,20.96
2023-04-23T08:47:52.493Z,20.97
2023-04-23T08:53:00.377Z,20.94
2023-04-23T08:58:08.728Z,20.89
2023-04-23T09:03:17.131Z,20.85
2023-04-23T09:08:25.438Z,20.82
2023-04-23T09:13:33.995Z,20.79
2023-04-23T09:18:41.604Z,20.77
2023-04-23T09:23:53.808Z,20.76
2023-04-23T09:29:01.093Z,20.75
2023-04-23T09:34:09.247Z,20.74
2023-04-23T09:39:20.720Z,20.73
2023-04-23T09:44:30.001Z,20.72
2023-04-23T09:49:46.894Z,20.74
2023-04-23T09:54:54.585Z,20.75
2023-04-23T10:00:15.344Z,20.77
2023-04-23T10:05:29.390Z,20.80
2023-04-23T10:10:57.486Z,20.84
2023-04-23T10:16:22.251Z,20.90
2023-04-23T10:21:42.964Z,20.94
2023-04-23T10:27:03.207Z,20.98
2023-04-23T10:32:10.728Z,21.03
2023-04-23T10:37:19.851Z,21.07
2023-04-23T10:42:28.340Z,21.11
2023-04-23T10:47:35.898Z,21.15
2023-04-23T10:52:47.288Z,21.17
2023-04-23T10:58:04.370Z,21.20
2023-04-23T11:03:31.809Z,21.23
2023-04-23T11:08:53.476Z,21.27
2023-04-23T11:14:14.621Z,21.32
2023-04-23T11:19:22.420Z,21.36
2023-04-23T11:24:31.500Z,21.41
2023-04-23T11:29:41.499Z,21.46
2023-04-23T11:34:51.094Z,21.49
2023-04-23T11:39:59.556Z,21.52
2023-04-23T11:45:08.059Z,21.57
2023-04-23T11:50:21.518Z,21.61
2023-04-23T11:55:30.838Z,21.63
2023-04-23T12:00:38.166Z,21.67
2023-04-23T12:05:48.445Z,21.71
2023-04-23T12:10:57.115Z,21.74
2023-04-23T12:16:05.831Z,21.77
2023-04-23T12:21:14.133Z,21.82
2023-04-23T12:26:25.359Z,21.87
2023-04-23T12:31:33.662Z,21.91
2023-04-23T12:36:46.166Z,21.97
2023-04-23T12:41:54.828Z,22.02
2023-04-23T12:47:05.256Z,22.06
2023-04-23T12:52:14.146Z,22.10
2023-04-23T12:57:23.618Z,22.14
2023-04-23T13:02:31.996Z,22.17
2023-04-23T13:07:39.860Z,22.22
2023-04-23T13:12:47.537Z,22.27
2023-04-23T13:17:55.259Z,22.33
2023-04-23T13:23:03.533Z,22.37
2023-04-23T13:28:11.201Z,22.40
2023-04-23T13:33:19.635Z,22.44
2023-04-23T13:38:27.949Z,22.50
2023-04-23T13:43:35.807Z,22.57
2023-04-23T13:48:43.393Z,22.62
2023-04-23T13:53:51.156Z,22.63
2023-04-23T13:59:18.239Z,22.64
2023-04-23T14:04:27.736Z,22.63
2023-04-23T14:09:35.511Z,22.62
2023-04-23T14:14:43.478Z,22.60
2023-04-23T14:19:50.947Z,22.58
2023-04-23T14:25:06.887Z,22.56
2023-04-23T14:30:18.944Z,22.55
2023-04-23T14:35:36.035Z,22.54
2023-04-23T14:40:49.848Z,22.55
2023-04-23T14:45:57.190Z,22.57
2023-04-23T14:51:05.049Z,22.56
2023-04-23T14:56:12.706Z,22.55
2023-04-23T15:01:20.419Z,22.55
2023-04-23T15:06:28.404Z,22.52
2023-04-23T15:11:39.291Z,22.50
2023-04-23T15:16:49.276Z,22.46
2023-04-23T15:21:57.499Z,22.43
2023-04-23T15:27:05.070Z,22.40
2023-04-23T15:32:13.077Z,22.37
2023-04-23T15:37:21.554Z,22.33
2023-04-23T15:42:29.352Z,22.29
2023-04-23T15:47:40.717Z,22.25
2023-04-23T15:52:49.870Z,22.20
2023-04-23T15:57:59.445Z,22.14
2023-04-23T16:03:08.313Z,22.09
2023-04-23T16:08:17.306Z,22.04
2023-04-23T16:13:27.311Z,22.00
2023-04-23T16:18:34.886Z,21.94
2023-04-23T16:23:42.407Z,21.88
2023-04-23T16:28:52.415Z,21.82
2023-04-23T16:34:13.097Z,21.75
2023-04-23T16:39:21.016Z,21.69
2023-04-23T16:44:29.342Z,21.62
2023-04-23T16:49:36.964Z,21.56
2023-04-23T16:54:46.054Z,21.48
2023-04-23T16:59:54.490Z,21.39
2023-04-23T17:05:02.418Z,21.30
2023-04-23T17:10:12.788Z,21.20
2023-04-23T17:15:21.033Z,21.10
2023-04-23T17:20:29.441Z,21.00
2023-04-23T17:25:37.038Z,20.90
2023-04-23T17:30:45.818Z,20.78
2023-04-23T17:35:55.719Z,20.66
2023-04-23T17:41:03.824Z,20.53
2023-04-23T17:46:11.145Z,20.40
2023-04-23T17:51:18.644Z,20.26
2023-04-23T17:56:27.454Z,20.11
2023-04-23T18:01:35.047Z,19.96
2023-04-23T18:06:42.636Z,19.80
2023-04-23T18:11:50.002Z,19.63
2023-04-23T18:16:58.062Z,19.45
2023-04-23T18:22:05.629Z,19.28
2023-04-23T18:27:12.935Z,19.12
2023-04-23T18:32:31.250Z,18.97
2023-04-23T18:37:49.293Z,18.82
2023-04-23T18:42:56.847Z,18.70
2023-04-23T18:48:37.760Z,18.59
2023-04-23T18:53:45.132Z,18.47
2023-04-23T18:58:52.558Z,18.37
2023-04-23T19:04:00.459Z,18.26
2023-04-23T19:09:08.279Z,18.16
2023-04-23T19:14:16.197Z,18.05
2023-04-23T19:19:24.790Z,17.96
2023-04-23T19:24:33.269Z,17.86
2023-04-23T19:29:41.432Z,17.75
2023-04-23T19:34:48.956Z,17.66
2023-04-23T19:39:56.483Z,17.57
2023-04-23T19:45:04.294Z,17.48
2023-04-23T19:50:14.252Z,17.40
2023-04-23T19:55:27.711Z,17.31
2023-04-23T20:00:37.966Z,17.22
2023-04-23T20:05:46.583Z,17.14
2023-04-23T20:10:54.102Z,17.06
2023-04-23T20:16:01.631Z,16.97
2023-04-23T20:21:09.669Z,16.89
2023-04-23T20:26:17.169Z,16.80
2023-04-23T20:31:24.840Z,16.71
2023-04-23T20:36:33.808Z,16.63
2023-04-23T20:41:41.802Z,16.56
2023-04-23T20:46:49.867Z,16.48
2023-04-23T20:51:57.285Z,16.41
2023-04-23T20:57:05.094Z,16.33
2023-04-23T21:02:15.718Z,16.26
2023-04-23T21:07:23.601Z,16.18
2023-04-23T21:12:31.666Z,16.12
2023-04-23T21:17:39.032Z,16.07
2023-04-23T21:22:46.681Z,16.01
2023-04-23T21:27:54.743Z,15.95
2023-04-23T21:33:02.622Z,15.87
2023-04-23T21:38:10.434Z,15.79
2023-04-23T21:43:18.276Z,15.68
2023-04-23T21:48:25.691Z,15.57
2023-04-23T21:53:33.000Z,15.47
2023-04-23T21:58:40.584Z,15.36
2023-04-23T22:03:48.432Z,15.27
2023-04-23T22:08:56.609Z,15.16
2023-04-23T22:14:04.387Z,15.05
2023-04-23T22:19:12.544Z,14.94
2023-04-23T22:24:20.511Z,14.83
2023-04-23T22:29:28.080Z,14.72
2023-04-23T22:34:35.523Z,14.60
2023-04-23T22:39:43.265Z,14.47
2023-04-23T22:44:51.210Z,14.32
2023-04-23T22:49:59.323Z,14.19
2023-04-23T22:55:07.968Z,14.05
2023-04-23T23:00:17.568Z,13.93
2023-04-23T23:05:25.204Z,13.78
2023-04-23T23:10:32.924Z,13.66
2023-04-23T23:15:40.464Z,13.52
2023-04-23T23:20:48.078Z,13.39
2023-04-23T23:25:56.726Z,13.26
2023-04-23T23:31:05.749Z,13.15
2023-04-23T23:36:13.465Z,13.04
2023-04-23T23:41:21.679Z,12.94
2023-04-23T23:46:29.456Z,12.86
2023-04-23T23:51:36.922Z,12.81
2023-04-23T23:56:44.630Z,12.78
